createdAt,value
2023-05-20T00:00:06.568Z,0.50
2023-05-20T00:01:07.622Z,0.50
2023-05-20T00:02:06.730Z,0.50
2023-05-20T00:03:06.951Z,0.50
2023-05-20T00:04:07.065Z,0.50
2023-05-20T00:05:07.066Z,0.50
2023-05-20T00:06:06.719Z,0.50
2023-05-20T00:07:06.740Z,0.50
2023-05-20T00:08:06.830Z,0.51
2023-05-20T00:09:07.767Z,0.50
2023-05-20T00:23:29.947Z,0.50
2023-05-20T00:24:30.695Z,0.50
2023-05-20T00:25:29.813Z,0.50
2023-05-20T00:26:30.766Z,0.50
2023-05-20T00:27:30.733Z,0.50
2023-05-20T00:28:30.982Z,0.50
2023-05-20T00:29:30.013Z,0.49
2023-05-20T00:30:31.085Z,0.50
2023-05-20T00:31:30.027Z,0.50
2023-05-20T00:32:31.066Z,0.50
2023-05-20T00:33:29.944Z,0.50
2023-05-20T00:35:49.314Z,0.50
2023-05-20T00:36:50.182Z,0.50
2023-05-20T00:37:49.067Z,0.50
2023-05-20T00:38:50.431Z,0.50
2023-05-20T00:41:26.646Z,0.50
2023-05-20T00:42:27.606Z,0.50
2023-05-20T00:43:26.588Z,0.50
2023-05-20T00:57:44.856Z,0.50
2023-05-20T00:58:44.716Z,0.50
2023-05-20T00:59:45.983Z,0.50
2023-05-20T01:00:44.730Z,0.50
2023-05-20T01:01:44.821Z,0.50
2023-05-20T01:02:44.765Z,0.50
2023-05-20T01:03:44.825Z,0.49
2023-05-20T01:04:44.820Z,0.48
2023-05-20T01:05:45.807Z,0.50
2023-05-20T01:06:45.042Z,0.50
2023-05-20T01:07:45.860Z,0.50
2023-05-20T01:08:44.903Z,0.50
2023-05-20T01:11:04.589Z,0.50
2023-05-20T01:12:04.551Z,0.50
2023-05-20T01:13:05.747Z,0.50
2023-05-20T01:14:05.265Z,0.50
2023-05-20T01:15:05.714Z,0.50
2023-05-20T01:16:04.723Z,0.50
2023-05-20T01:17:04.537Z,0.50
2023-05-20T01:26:09.442Z,0.50
2023-05-20T01:27:09.439Z,0.50
2023-05-20T01:28:09.318Z,0.50
2023-05-20T01:29:10.309Z,0.50
2023-05-20T01:30:09.329Z,0.50
2023-05-20T01:31:09.491Z,0.50
2023-05-20T01:32:09.653Z,0.50
2023-05-20T01:37:45.442Z,0.50
2023-05-20T01:38:45.546Z,0.50
2023-05-20T01:39:45.307Z,0.50
2023-05-20T01:40:46.390Z,0.50
2023-05-20T01:41:46.626Z,0.50
2023-05-20T01:42:46.616Z,0.50
2023-05-20T01:43:45.622Z,0.50
2023-05-20T01:44:45.670Z,0.50
2023-05-20T01:45:46.473Z,0.51
2023-05-20T01:46:46.755Z,0.50
2023-05-20T01:47:46.806Z,0.50
2023-05-20T02:00:28.724Z,0.50
2023-05-20T02:01:29.619Z,0.50
2023-05-20T02:05:29.357Z,0.50
2023-05-20T02:06:29.134Z,0.50
2023-05-20T02:07:29.303Z,0.50
2023-05-20T02:17:32.037Z,0.50
2023-05-20T02:18:32.898Z,0.50
2023-05-20T02:19:32.142Z,0.50
2023-05-20T02:20:32.871Z,0.50
2023-05-20T02:21:31.869Z,0.50
2023-05-20T02:22:32.063Z,0.50
2023-05-20T02:23:32.129Z,0.49
2023-05-20T02:41:03.987Z,0.50
2023-05-20T02:46:39.650Z,0.50
2023-05-20T02:47:40.534Z,0.50
2023-05-20T02:48:40.720Z,0.50
2023-05-20T02:53:46.872Z,0.50
2023-05-20T02:54:46.730Z,0.50
2023-05-20T02:55:47.012Z,0.50
2023-05-20T02:58:30.145Z,0.50
2023-05-20T02:59:30.134Z,0.50
2023-05-20T03:00:30.270Z,0.50
2023-05-20T03:01:31.139Z,0.50
2023-05-20T03:02:31.051Z,0.50
2023-05-20T03:03:30.160Z,0.50
2023-05-20T03:04:30.304Z,0.49
2023-05-20T03:05:31.213Z,0.50
2023-05-20T03:06:30.294Z,0.50
2023-05-20T03:07:30.324Z,0.50
2023-05-20T03:08:31.359Z,0.50
2023-05-20T03:21:43.096Z,0.50
2023-05-20T03:22:42.929Z,0.50
2023-05-20T03:25:02.097Z,0.50
2023-05-20T03:26:02.431Z,0.50
2023-05-20T03:27:03.193Z,0.50
2023-05-20T03:28:02.143Z,0.50
2023-05-20T03:29:02.203Z,0.50
2023-05-20T03:30:01.998Z,0.49
2023-05-20T03:31:02.035Z,0.49
2023-05-20T03:32:02.117Z,0.50
2023-05-20T03:36:44.280Z,0.50
2023-05-20T03:37:45.298Z,0.50
2023-05-20T03:38:44.059Z,0.50
2023-05-20T03:39:45.068Z,0.50
2023-05-20T03:40:44.183Z,0.50
2023-05-20T03:41:45.338Z,0.50
2023-05-20T03:46:04.334Z,0.50
2023-05-20T03:47:05.322Z,0.50
2023-05-20T03:48:04.138Z,0.50
2023-05-20T03:49:04.108Z,0.50
2023-05-20T03:50:05.203Z,0.50
2023-05-20T03:58:26.041Z,0.50
2023-05-20T03:59:25.935Z,0.50
2023-05-20T04:00:26.194Z,0.50
2023-05-20T04:01:26.052Z,0.50
2023-05-20T04:02:26.105Z,0.50
2023-05-20T04:03:26.151Z,0.50
2023-05-20T04:04:27.086Z,0.49
2023-05-20T04:05:27.217Z,0.50
2023-05-20T04:06:27.167Z,0.50
2023-05-20T04:07:26.154Z,0.50
2023-05-20T04:08:26.157Z,0.50
2023-05-20T04:09:26.261Z,0.51
2023-05-20T04:10:27.183Z,0.50
2023-05-20T04:23:03.684Z,0.50
2023-05-20T04:27:17.298Z,0.50
2023-05-20T04:31:35.917Z,0.50
2023-05-20T04:32:36.632Z,0.50
2023-05-20T04:33:36.867Z,0.50
2023-05-20T04:34:35.782Z,0.50
2023-05-20T05:13:38.167Z,0.50
2023-05-20T05:14:39.366Z,0.50
2023-05-20T05:15:38.248Z,0.50
2023-05-20T05:16:38.200Z,0.50
2023-05-20T05:17:39.291Z,0.50
2023-05-20T05:18:39.308Z,0.50
2023-05-20T05:19:38.352Z,0.42
2023-05-20T05:20:38.452Z,0.38
2023-05-20T05:21:38.378Z,0.36
2023-05-20T05:22:38.354Z,0.37
2023-05-20T05:23:38.386Z,0.38
2023-05-20T05:24:38.402Z,0.41
2023-05-20T05:25:39.440Z,0.45
2023-05-20T05:26:39.448Z,0.50
2023-05-20T05:27:39.564Z,0.50
2023-05-20T05:28:39.376Z,0.50
2023-05-20T05:29:38.598Z,0.50
2023-05-20T05:30:38.356Z,0.51
2023-05-20T05:31:39.598Z,0.50
2023-05-20T05:32:38.631Z,0.50
2023-05-20T05:33:39.368Z,0.50
2023-05-20T05:34:39.401Z,0.50
2023-05-20T05:35:38.426Z,0.50
2023-05-20T05:36:39.399Z,0.51
2023-05-20T05:37:38.456Z,0.50
2023-05-20T05:38:38.392Z,0.50
2023-05-20T05:39:38.588Z,0.51
2023-05-20T05:40:38.406Z,0.50
2023-05-20T06:06:37.378Z,0.50
2023-05-20T06:10:38.024Z,0.50
2023-05-20T06:11:37.750Z,0.50
2023-05-20T06:12:38.082Z,0.50
2023-05-20T06:13:37.769Z,0.50
2023-05-20T06:14:37.783Z,0.50
2023-05-20T06:18:10.315Z,0.50
2023-05-20T06:19:11.390Z,0.50
2023-05-20T06:20:10.159Z,0.50
2023-05-20T06:21:10.124Z,0.50
2023-05-20T06:22:10.247Z,0.50
2023-05-20T06:23:10.194Z,0.50
2023-05-20T06:24:10.329Z,0.49
2023-05-20T06:25:10.307Z,0.50
2023-05-20T06:26:11.456Z,0.50
2023-05-20T06:27:10.180Z,0.50
2023-05-20T06:28:10.315Z,0.51
2023-05-20T06:29:11.368Z,0.50
2023-05-20T06:30:10.233Z,0.50
2023-05-20T06:32:47.765Z,0.50
2023-05-20T06:42:02.818Z,0.50
2023-05-20T06:43:03.911Z,0.50
2023-05-20T06:44:02.744Z,0.50
2023-05-20T06:45:03.710Z,0.50
2023-05-20T06:46:02.918Z,0.50
2023-05-20T06:47:02.804Z,0.50
2023-05-20T06:48:02.883Z,0.49
2023-05-20T06:49:02.802Z,0.50
2023-05-20T06:50:02.820Z,0.50
2023-05-20T06:51:02.827Z,0.50
2023-05-20T06:52:02.939Z,0.50
2023-05-20T06:53:02.870Z,0.51
2023-05-20T07:02:19.709Z,0.50
2023-05-20T07:03:20.628Z,0.50
2023-05-20T07:04:19.837Z,0.50
2023-05-20T07:05:20.109Z,0.50
2023-05-20T07:06:20.743Z,0.50
2023-05-20T08:14:05.928Z,0.50
2023-05-20T08:15:06.846Z,0.50
2023-05-20T08:16:05.922Z,0.50
2023-05-20T08:17:05.857Z,0.50
2023-05-20T08:18:06.854Z,0.50
2023-05-20T08:23:00.048Z,0.50
2023-05-20T08:24:01.008Z,0.50
2023-05-20T08:24:59.939Z,0.50
2023-05-20T08:26:00.834Z,0.50
2023-05-20T08:27:00.893Z,0.50
2023-05-20T08:27:59.829Z,0.50
2023-05-20T08:29:00.846Z,0.48
2023-05-20T08:30:01.008Z,0.49
2023-05-20T08:41:25.405Z,0.50
2023-05-20T08:43:44.947Z,0.50
2023-05-20T08:44:45.769Z,0.50
2023-05-20T08:45:45.049Z,0.50
2023-05-20T08:48:04.414Z,0.50
2023-05-20T08:49:03.980Z,0.50
2023-05-20T08:50:03.887Z,0.50
2023-05-20T08:51:04.916Z,0.50
2023-05-20T08:54:34.117Z,0.50
2023-05-20T08:55:35.246Z,0.50
2023-05-20T08:56:34.027Z,0.50
2023-05-20T08:57:34.985Z,0.50
2023-05-20T08:58:35.087Z,0.50
2023-05-20T08:59:35.026Z,0.51
2023-05-20T09:00:34.944Z,0.50
2023-05-20T09:01:34.197Z,0.50
2023-05-20T09:02:35.396Z,0.50
2023-05-20T09:03:34.355Z,0.50
2023-05-20T09:04:35.071Z,0.51
2023-05-20T09:05:34.390Z,0.50
2023-05-20T09:06:34.198Z,0.51
2023-05-20T09:07:35.221Z,0.50
2023-05-20T09:08:35.176Z,0.50
2023-05-20T09:09:34.287Z,0.51
2023-05-20T09:10:34.367Z,0.50
2023-05-20T09:11:34.284Z,0.50
2023-05-20T09:12:34.288Z,0.50
2023-05-20T09:13:34.337Z,0.50
2023-05-20T09:14:35.383Z,0.51
2023-05-20T09:15:34.838Z,0.51
2023-05-20T09:16:34.553Z,0.50
2023-05-20T09:17:35.611Z,0.50
2023-05-20T09:18:34.525Z,0.51
2023-05-20T09:19:34.741Z,0.51
2023-05-20T09:20:34.588Z,0.52
2023-05-20T09:21:34.530Z,0.52
2023-05-20T09:22:35.778Z,0.51
2023-05-20T09:23:34.780Z,0.50
2023-05-20T09:24:34.786Z,0.51
2023-05-20T09:25:34.999Z,0.51
2023-05-20T09:26:34.684Z,0.51
2023-05-20T09:27:35.744Z,0.51
2023-05-20T09:28:35.875Z,0.50
2023-05-20T09:29:34.827Z,0.51
2023-05-20T09:30:34.787Z,0.51
2023-05-20T09:31:34.956Z,0.51
2023-05-20T09:32:35.905Z,0.51
2023-05-20T09:33:36.188Z,0.51
2023-05-20T09:34:34.917Z,0.52
2023-05-20T09:35:36.084Z,0.50
2023-05-20T09:36:35.043Z,0.51
2023-05-20T09:37:35.010Z,0.51
2023-05-20T09:38:35.073Z,0.51
2023-05-20T09:39:35.080Z,0.52
2023-05-20T09:40:36.045Z,0.50
2023-05-20T09:41:35.127Z,0.51
2023-05-20T09:42:35.218Z,0.51
2023-05-20T09:43:36.239Z,0.51
2023-05-20T09:44:35.236Z,0.51
2023-05-20T09:45:36.645Z,0.50
2023-05-20T09:46:35.365Z,0.51
2023-05-20T09:47:36.357Z,0.50
2023-05-20T09:48:35.434Z,0.51
2023-05-20T09:49:35.407Z,0.52
2023-05-20T09:50:36.524Z,0.51
2023-05-20T09:51:35.353Z,0.52
2023-05-20T09:52:36.398Z,0.51
2023-05-20T09:53:35.484Z,0.51
2023-05-20T09:54:35.568Z,0.50
2023-05-20T09:55:35.913Z,0.51
2023-05-20T09:56:35.634Z,0.52
2023-05-20T09:57:36.485Z,0.52
2023-05-20T09:58:35.528Z,0.50
2023-05-20T09:59:35.523Z,0.51
2023-05-20T10:00:35.584Z,0.50
2023-05-20T10:01:36.811Z,0.51
2023-05-20T10:02:36.894Z,0.51
2023-05-20T10:03:35.864Z,0.52
2023-05-20T10:04:35.786Z,0.50
2023-05-20T10:05:36.156Z,0.51
2023-05-20T10:06:36.890Z,0.50
2023-05-20T10:07:42.081Z,0.51
2023-05-20T10:08:36.881Z,0.51
2023-05-20T10:09:35.898Z,0.51
2023-05-20T10:10:35.765Z,0.51
2023-05-20T10:11:35.663Z,0.51
2023-05-20T10:13:55.142Z,0.50
2023-05-20T10:14:54.985Z,0.50
2023-05-20T10:20:09.854Z,0.50
2023-05-20T10:22:25.137Z,0.50
2023-05-20T10:23:25.237Z,0.50
2023-05-20T10:24:26.191Z,0.50
